Time;durP1;ratioP1;P1;durP2;ratioP2;P2;SDS_P1;SDS_P2;PMS_P1;PMS_P2;Temp;Humidity;BMP_temperature;BMP_pressure;BME280_temperature;BME280_humidity;BME280_pressure;Samples;Min_cycle;Max_cycle;Signal;HPM_P1;HPM_P2
2022/07/22 00:01:19;;;;;;;8.20;7.33;;;25.40;44.10;;;;;;5032129;28;20645;-44
2022/07/22 00:03:46;;;;;;;9.23;7.83;;;25.40;44.00;;;;;;5032265;28;20205;-44
2022/07/22 00:06:11;;;;;;;8.47;7.60;;;25.30;44.20;;;;;;5031861;28;20955;-44
2022/07/22 00:08:37;;;;;;;9.87;7.67;;;25.30;44.40;;;;;;5032305;28;20579;-44
2022/07/22 00:11:04;;;;;;;11.53;7.67;;;25.30;44.50;;;;;;5032243;28;20769;-44
2022/07/22 00:13:30;;;;;;;11.17;8.30;;;25.30;44.70;;;;;;5032380;28;20413;-44
2022/07/22 00:15:56;;;;;;;10.03;8.10;;;25.20;44.70;;;;;;5031716;28;20456;-44
2022/07/22 00:18:22;;;;;;;9.93;8.13;;;25.20;44.60;;;;;;5032249;28;20428;-44
2022/07/22 00:20:48;;;;;;;12.43;8.07;;;25.20;44.70;;;;;;5032351;28;20900;-44
2022/07/22 00:23:14;;;;;;;8.97;7.20;;;25.10;44.70;;;;;;5032164;28;20464;-45
2022/07/22 00:25:40;;;;;;;10.23;7.03;;;25.10;44.50;;;;;;5031804;28;20593;-44
2022/07/22 00:28:05;;;;;;;9.00;7.83;;;25.10;44.60;;;;;;5031919;28;20427;-44
2022/07/22 00:30:31;;;;;;;8.40;6.73;;;25.00;44.40;;;;;;5032174;28;20499;-44
2022/07/22 00:32:57;;;;;;;10.23;7.80;;;25.10;44.50;;;;;;5031864;28;20557;-44
2022/07/22 00:35:23;;;;;;;8.33;6.50;;;25.00;44.60;;;;;;5032100;28;20404;-44
2022/07/22 00:37:49;;;;;;;9.50;7.33;;;25.00;44.60;;;;;;5031834;28;20687;-44
2022/07/22 00:40:14;;;;;;;9.80;7.67;;;24.90;44.70;;;;;;5032034;28;20589;-44
2022/07/22 00:42:40;;;;;;;7.63;6.73;;;24.90;44.50;;;;;;5032062;28;20240;-44
2022/07/22 00:45:08;;;;;;;8.83;6.80;;;24.90;44.70;;;;;;5031838;28;20529;-44
2022/07/22 00:47:34;;;;;;;8.93;6.50;;;24.80;44.70;;;;;;5031609;28;20435;-44
2022/07/22 00:49:59;;;;;;;8.13;6.27;;;24.80;44.80;;;;;;5032067;28;20492;-44
2022/07/22 00:52:26;;;;;;;8.50;6.73;;;24.80;44.70;;;;;;5032027;28;20651;-44
2022/07/22 00:54:52;;;;;;;7.33;6.67;;;24.70;45.00;;;;;;5031959;28;20417;-44
2022/07/22 00:57:18;;;;;;;8.17;7.13;;;24.70;44.90;;;;;;5031265;28;20593;-44
2022/07/22 00:59:45;;;;;;;8.07;7.10;;;24.70;44.80;;;;;;5033327;28;20420;-44
2022/07/22 01:02:10;;;;;;;9.93;7.00;;;24.60;45.00;;;;;;5035182;28;20462;-44
2022/07/22 01:04:36;;;;;;;9.33;7.60;;;24.50;45.40;;;;;;5035537;28;20491;-44
2022/07/22 01:07:03;;;;;;;8.83;7.67;;;24.50;45.50;;;;;;5035137;28;20920;-44
2022/07/22 01:09:29;;;;;;;10.20;8.07;;;24.50;45.30;;;;;;5035284;28;20851;-44
2022/07/22 01:11:55;;;;;;;9.27;7.60;;;24.40;45.20;;;;;;5035200;28;20946;-44
2022/07/22 01:14:20;;;;;;;9.53;7.90;;;24.50;45.30;;;;;;5035215;28;20246;-44
2022/07/22 01:16:46;;;;;;;9.60;7.40;;;24.40;45.20;;;;;;5034733;28;20515;-44
2022/07/22 01:19:12;;;;;;;10.80;7.83;;;24.40;45.20;;;;;;5035082;28;20255;-44
2022/07/22 01:21:38;;;;;;;10.97;9.50;;;24.40;45.20;;;;;;5035338;28;20182;-44
2022/07/22 01:24:05;;;;;;;9.80;7.20;;;24.40;45.20;;;;;;5035274;28;20588;-44
2022/07/22 01:26:33;;;;;;;10.93;8.77;;;24.30;45.20;;;;;;5034700;28;20456;-44
2022/07/22 01:28:59;;;;;;;10.17;7.50;;;24.30;45.20;;;;;;5034978;28;21150;-44
2022/07/22 01:31:25;;;;;;;10.33;8.17;;;24.30;45.30;;;;;;5034764;28;20444;-44
2022/07/22 01:33:50;;;;;;;13.90;7.87;;;24.30;45.50;;;;;;5034859;28;20440;-44
2022/07/22 01:36:16;;;;;;;9.27;7.60;;;24.30;45.50;;;;;;5034510;28;20609;-44
2022/07/22 01:38:42;;;;;;;9.53;7.83;;;24.30;45.50;;;;;;5034873;28;20219;-44
2022/07/22 01:41:08;;;;;;;9.53;7.27;;;24.30;45.90;;;;;;5034788;28;20408;-44
2022/07/22 01:43:34;;;;;;;9.20;7.33;;;24.20;45.70;;;;;;5034884;28;20484;-44
2022/07/22 01:46:00;;;;;;;9.23;7.10;;;24.20;45.70;;;;;;5034246;28;20193;-44
2022/07/22 01:48:26;;;;;;;10.37;7.00;;;24.20;45.80;;;;;;5034638;28;20438;-44
2022/07/22 01:50:52;;;;;;;8.50;6.73;;;24.20;45.70;;;;;;5034583;28;20459;-44
2022/07/22 01:53:19;;;;;;;9.43;8.33;;;24.20;45.80;;;;;;5034655;28;20765;-44
2022/07/22 01:55:45;;;;;;;7.07;6.30;;;24.10;45.70;;;;;;5034190;28;20408;-44
2022/07/22 01:58:10;;;;;;;8.57;7.20;;;24.10;45.70;;;;;;5034286;28;20436;-44
2022/07/22 02:00:37;;;;;;;11.13;7.87;;;24.10;45.40;;;;;;5034237;28;20956;-44
2022/07/22 02:03:03;;;;;;;8.33;7.07;;;24.10;45.60;;;;;;5034281;28;20194;-44
2022/07/22 02:05:29;;;;;;;9.00;7.20;;;24.00;45.40;;;;;;5034179;28;20405;-44
2022/07/22 02:08:08;;;;;;;11.00;7.50;;;24.00;45.40;;;;;;5034132;28;20428;-44
2022/07/22 02:10:34;;;;;;;8.80;7.70;;;24.00;45.40;;;;;;5033156;28;20413;-44
2022/07/22 02:13:01;;;;;;;8.73;7.40;;;23.90;45.60;;;;;;5034433;28;20490;-44
2022/07/22 02:15:27;;;;;;;8.47;7.40;;;23.90;45.60;;;;;;5034104;28;20504;-44
2022/07/22 02:17:54;;;;;;;9.37;8.40;;;23.90;45.60;;;;;;5033971;28;20441;-44
2022/07/22 02:20:21;;;;;;;8.10;6.77;;;23.90;45.30;;;;;;5034062;28;20837;-44
2022/07/22 02:22:47;;;;;;;11.90;8.00;;;23.90;45.40;;;;;;5033918;28;20456;-44
2022/07/22 02:25:13;;;;;;;8.67;7.77;;;23.80;45.40;;;;;;5033964;28;20401;-44
2022/07/22 02:27:41;;;;;;;9.00;7.77;;;23.80;45.10;;;;;;5033788;28;20281;-44
2022/07/22 02:30:08;;;;;;;11.50;7.70;;;23.80;45.20;;;;;;5034018;28;20493;-44
2022/07/22 02:32:34;;;;;;;9.77;7.33;;;23.80;45.40;;;;;;5034062;28;20409;-44
2022/07/22 02:35:00;;;;;;;8.90;7.80;;;23.70;45.40;;;;;;5033707;28;20776;-44
2022/07/22 02:37:26;;;;;;;7.27;6.57;;;23.70;45.40;;;;;;5033481;28;20438;-44
2022/07/22 02:39:52;;;;;;;8.13;6.63;;;23.70;45.50;;;;;;5034139;28;20182;-46
2022/07/22 02:42:18;;;;;;;10.43;7.60;;;23.70;45.50;;;;;;5033288;28;20456;-46
2022/07/22 02:44:43;;;;;;;11.47;8.40;;;23.70;45.60;;;;;;5033396;28;20173;-46
2022/07/22 02:47:09;;;;;;;9.43;7.17;;;23.60;45.70;;;;;;5033087;28;20341;-45
2022/07/22 02:49:35;;;;;;;11.87;6.93;;;23.60;45.60;;;;;;5033244;28;20173;-45
2022/07/22 02:52:01;;;;;;;10.30;8.30;;;23.60;45.70;;;;;;5033327;28;20170;-45
2022/07/22 02:54:26;;;;;;;9.27;7.43;;;23.60;45.70;;;;;;5033217;28;20177;-44
2022/07/22 02:56:52;;;;;;;9.00;7.83;;;23.60;45.90;;;;;;5032785;28;20376;-45
2022/07/22 02:59:18;;;;;;;8.07;6.17;;;23.60;45.60;;;;;;5033356;28;20562;-45
2022/07/22 03:01:44;;;;;;;8.63;7.20;;;23.50;45.80;;;;;;5033042;28;20530;-46
2022/07/22 03:04:09;;;;;;;11.87;8.60;;;23.60;45.90;;;;;;5033431;28;20174;-45
2022/07/22 03:06:35;;;;;;;8.30;6.53;;;23.50;46.00;;;;;;5032665;28;20687;-45
2022/07/22 03:09:01;;;;;;;10.17;8.10;;;23.50;46.00;;;;;;5033189;28;20170;-45
2022/07/22 03:11:27;;;;;;;7.03;6.27;;;23.50;46.10;;;;;;5032871;28;20653;-44
2022/07/22 03:13:53;;;;;;;12.60;8.07;;;23.50;46.10;;;;;;5032835;28;20420;-45
2022/07/22 03:16:18;;;;;;;11.37;7.87;;;23.50;46.10;;;;;;5032681;28;20260;-45
2022/07/22 03:18:44;;;;;;;7.80;7.00;;;23.50;45.80;;;;;;5032835;28;20174;-45
2022/07/22 03:21:10;;;;;;;9.57;7.27;;;23.50;46.00;;;;;;5032753;28;20657;-45
2022/07/22 03:23:35;;;;;;;10.47;7.33;;;23.40;46.00;;;;;;5032194;28;20267;-45
2022/07/22 03:26:02;;;;;;;11.93;7.70;;;23.40;46.00;;;;;;5032261;28;20192;-44
2022/07/22 03:28:28;;;;;;;12.07;10.80;;;23.40;46.20;;;;;;5032503;28;20178;-45
2022/07/22 03:30:54;;;;;;;13.80;7.70;;;23.30;46.20;;;;;;5032584;28;20450;-45
2022/07/22 03:33:19;;;;;;;8.57;7.33;;;23.30;46.40;;;;;;5032777;28;20261;-44
2022/07/22 03:35:45;;;;;;;11.00;8.20;;;23.40;46.30;;;;;;5032272;28;20507;-45
2022/07/22 03:38:11;;;;;;;13.63;8.90;;;23.30;46.50;;;;;;5032433;28;20174;-45
2022/07/22 03:40:37;;;;;;;13.00;8.60;;;23.30;46.50;;;;;;5032379;28;20223;-45
2022/07/22 03:43:02;;;;;;;9.10;6.93;;;23.30;46.50;;;;;;5032276;28;20197;-45
2022/07/22 03:45:28;;;;;;;9.97;7.90;;;23.40;46.40;;;;;;5032518;28;20174;-44
2022/07/22 03:47:57;;;;;;;9.17;7.80;;;23.40;47.20;;;;;;5032016;28;20323;-44
2022/07/22 03:50:24;;;;;;;12.10;8.20;;;23.40;46.80;;;;;;5032530;28;20183;-45
2022/07/22 03:52:50;;;;;;;8.97;7.23;;;23.40;47.20;;;;;;5032228;28;20897;-45
2022/07/22 03:55:16;;;;;;;10.53;8.30;;;23.50;46.50;;;;;;5032370;28;20504;-45
2022/07/22 03:57:41;;;;;;;9.83;7.33;;;23.50;46.60;;;;;;5031800;28;20296;-45
2022/07/22 04:00:08;;;;;;;8.47;7.57;;;23.50;46.80;;;;;;5032073;28;20534;-45
2022/07/22 04:02:34;;;;;;;10.80;9.70;;;23.40;46.60;;;;;;5032120;28;20201;-46
2022/07/22 04:04:59;;;;;;;8.63;7.73;;;23.40;46.80;;;;;;5032005;28;20762;-45
2022/07/22 04:07:25;;;;;;;8.70;7.37;;;23.50;46.70;;;;;;5032013;28;20190;-45
2022/07/22 04:09:51;;;;;;;12.40;8.33;;;23.50;46.70;;;;;;5031906;28;20553;-45
2022/07/22 04:12:17;;;;;;;10.20;7.83;;;23.50;46.70;;;;;;5031943;28;20220;-45
2022/07/22 04:14:42;;;;;;;11.87;7.33;;;23.50;46.70;;;;;;5032106;28;20186;-44
2022/07/22 04:17:08;;;;;;;13.33;7.80;;;23.60;46.70;;;;;;5031741;28;20197;-44
2022/07/22 04:19:34;;;;;;;14.17;10.03;;;23.60;46.70;;;;;;5032017;28;20696;-44
2022/07/22 04:22:00;;;;;;;8.07;7.23;;;23.60;46.90;;;;;;5032068;28;20178;-44
2022/07/22 04:24:26;;;;;;;11.10;7.10;;;23.60;47.10;;;;;;5032218;28;20194;-44
2022/07/22 04:26:51;;;;;;;8.80;7.90;;;23.70;46.90;;;;;;5031735;28;20887;-43
2022/07/22 04:29:17;;;;;;;9.70;7.37;;;23.70;47.10;;;;;;5031731;28;20436;-44
2022/07/22 04:31:43;;;;;;;9.23;7.40;;;23.80;46.80;;;;;;5031749;28;20216;-44
2022/07/22 04:34:09;;;;;;;14.20;9.43;;;23.80;46.70;;;;;;5032639;28;20173;-44
2022/07/22 04:36:35;;;;;;;10.43;7.43;;;23.90;46.70;;;;;;5035555;28;20196;-44
2022/07/22 04:39:00;;;;;;;8.83;7.83;;;23.90;46.70;;;;;;5035622;28;20181;-44
2022/07/22 04:41:26;;;;;;;10.07;8.30;;;24.00;46.20;;;;;;5035946;28;20178;-43
2022/07/22 04:43:52;;;;;;;9.33;8.00;;;24.10;46.50;;;;;;5035576;28;20202;-42
2022/07/22 04:46:18;;;;;;;9.47;8.47;;;24.20;46.40;;;;;;5035364;28;20201;-42
2022/07/22 04:48:43;;;;;;;8.63;7.70;;;24.30;46.50;;;;;;5035597;28;20178;-43
2022/07/22 04:51:09;;;;;;;10.80;8.40;;;24.30;46.50;;;;;;5035751;28;20180;-44
2022/07/22 04:53:35;;;;;;;10.80;8.80;;;24.40;46.90;;;;;;5035690;28;20269;-44
2022/07/22 04:56:01;;;;;;;12.20;9.40;;;24.40;46.60;;;;;;5034968;28;20182;-44
2022/07/22 04:58:26;;;;;;;10.90;7.30;;;24.40;46.60;;;;;;5035415;28;20432;-44
2022/07/22 05:00:52;;;;;;;12.13;8.97;;;24.40;46.40;;;;;;5035330;28;20284;-44
2022/07/22 05:03:18;;;;;;;9.17;7.60;;;24.40;46.50;;;;;;5035152;28;20202;-44
2022/07/22 05:05:45;;;;;;;10.30;8.30;;;24.40;46.40;;;;;;5035046;28;20185;-42
2022/07/22 05:08:11;;;;;;;9.50;8.10;;;24.50;46.20;;;;;;5035218;28;20177;-42
2022/07/22 05:10:37;;;;;;;9.37;8.40;;;24.60;46.00;;;;;;5035162;28;20435;-44
2022/07/22 05:13:03;;;;;;;9.10;8.20;;;24.60;45.80;;;;;;5035274;28;20236;-44
2022/07/22 05:15:28;;;;;;;9.70;7.97;;;24.70;45.90;;;;;;5035160;28;20761;-44
2022/07/22 05:17:54;;;;;;;12.50;8.63;;;24.80;45.70;;;;;;5035145;28;20190;-44
2022/07/22 05:20:20;;;;;;;10.77;8.63;;;24.90;45.60;;;;;;5034961;28;20174;-44
2022/07/22 05:22:46;;;;;;;9.07;6.60;;;24.90;45.60;;;;;;5034818;28;20202;-45
2022/07/22 05:25:11;;;;;;;8.27;6.80;;;25.10;45.30;;;;;;5035161;28;20206;-45
2022/07/22 05:27:37;;;;;;;7.70;6.80;;;25.10;44.80;;;;;;5034828;28;20213;-44
2022/07/22 05:30:04;;;;;;;6.73;5.33;;;25.10;44.60;;;;;;5034756;28;20174;-43
2022/07/22 05:32:30;;;;;;;7.87;6.33;;;25.20;44.30;;;;;;5034996;28;20219;-45
2022/07/22 05:34:55;;;;;;;6.40;5.30;;;25.20;44.10;;;;;;5034651;28;20448;-44
2022/07/22 05:37:21;;;;;;;9.47;6.37;;;25.30;44.00;;;;;;5034356;28;20661;-42
2022/07/22 05:39:47;;;;;;;7.80;5.47;;;25.40;43.90;;;;;;5034627;28;20192;-43
2022/07/22 05:42:12;;;;;;;6.53;4.97;;;25.40;43.50;;;;;;5034480;28;20212;-42
2022/07/22 05:44:38;;;;;;;5.30;3.93;;;25.50;43.40;;;;;;5034378;28;20174;-43
2022/07/22 05:47:04;;;;;;;7.80;4.97;;;25.50;43.40;;;;;;5034336;28;20198;-43
2022/07/22 05:49:30;;;;;;;6.17;5.00;;;25.60;43.10;;;;;;5034458;28;20255;-44
2022/07/22 05:52:00;;;;;;;7.30;5.43;;;25.80;43.00;;;;;;5034514;28;20408;-44
2022/07/22 05:54:26;;;;;;;7.00;4.60;;;25.80;41.70;;;;;;5034513;28;20182;-45
2022/07/22 05:56:52;;;;;;;5.37;4.50;;;25.90;42.20;;;;;;5034271;28;20456;-44
2022/07/22 05:59:17;;;;;;;4.67;4.10;;;26.00;42.80;;;;;;5034711;28;20738;-44
2022/07/22 06:01:43;;;;;;;5.20;4.17;;;26.00;42.60;;;;;;5034429;28;20201;-44
2022/07/22 06:04:09;;;;;;;5.90;3.67;;;26.10;42.60;;;;;;5034137;28;20680;-44
2022/07/22 06:06:35;;;;;;;5.43;4.40;;;26.20;42.70;;;;;;5034183;28;20543;-44
2022/07/22 06:09:00;;;;;;;6.07;4.53;;;26.30;42.70;;;;;;5034510;28;20630;-44
2022/07/22 06:11:26;;;;;;;7.90;5.20;;;26.40;42.30;;;;;;5034163;28;20412;-44
2022/07/22 06:13:53;;;;;;;6.77;4.77;;;26.40;41.70;;;;;;5034380;28;20202;-44
2022/07/22 06:16:19;;;;;;;5.90;4.70;;;26.50;41.50;;;;;;5034119;28;20670;-44
2022/07/22 06:18:44;;;;;;;5.83;4.03;;;26.50;41.50;;;;;;5034016;28;20423;-44
2022/07/22 06:21:10;;;;;;;4.40;3.70;;;26.50;41.40;;;;;;5034307;28;20181;-44
2022/07/22 06:23:36;;;;;;;5.30;4.20;;;26.60;41.30;;;;;;5034071;28;20247;-44
2022/07/22 06:26:02;;;;;;;3.93;3.30;;;26.70;41.20;;;;;;5033651;28;20197;-44
2022/07/22 06:28:27;;;;;;;7.33;4.60;;;26.80;41.50;;;;;;5033818;28;20178;-44
2022/07/22 06:30:53;;;;;;;5.40;4.03;;;26.80;41.60;;;;;;5033861;28;20178;-44
2022/07/22 06:33:19;;;;;;;5.33;3.80;;;27.00;41.70;;;;;;5033823;28;20193;-45
2022/07/22 06:35:45;;;;;;;5.67;4.47;;;27.10;41.30;;;;;;5033474;28;20180;-45
2022/07/22 06:38:10;;;;;;;4.80;3.60;;;27.10;41.20;;;;;;5033618;28;20270;-46
2022/07/22 06:40:36;;;;;;;5.67;4.50;;;27.20;40.90;;;;;;5033636;28;20174;-44
2022/07/22 06:43:03;;;;;;;5.07;4.00;;;27.20;40.70;;;;;;5033340;28;20622;-44
2022/07/22 06:45:29;;;;;;;6.30;3.80;;;27.30;40.50;;;;;;5033609;28;20530;-44
2022/07/22 06:47:55;;;;;;;5.50;4.37;;;27.30;40.70;;;;;;5033077;28;20433;-43
2022/07/22 06:50:21;;;;;;;4.83;3.80;;;27.40;40.40;;;;;;5033248;28;20413;-44
2022/07/22 06:52:48;;;;;;;4.77;3.80;;;27.50;40.10;;;;;;5033201;28;20423;-45
2022/07/22 06:55:15;;;;;;;7.57;3.97;;;27.60;39.70;;;;;;5033268;28;20247;-44
2022/07/22 06:57:40;;;;;;;6.00;4.17;;;27.50;39.50;;;;;;5032110;28;20459;-46
2022/07/22 07:00:08;;;;;;;4.50;3.30;;;27.60;39.60;;;;;;5033064;28;20417;-46
2022/07/22 07:02:34;;;;;;;4.90;3.60;;;27.60;39.60;;;;;;5032938;28;20206;-47
2022/07/22 07:05:00;;;;;;;4.20;3.10;;;27.70;39.30;;;;;;5032992;28;20404;-45
2022/07/22 07:07:26;;;;;;;5.43;3.00;;;27.70;39.10;;;;;;5032720;28;20431;-46
2022/07/22 07:09:52;;;;;;;6.17;4.30;;;27.80;38.90;;;;;;5033129;28;20413;-45
2022/07/22 07:12:17;;;;;;;4.60;3.53;;;27.80;38.70;;;;;;5032958;28;20504;-45
2022/07/22 07:14:43;;;;;;;5.70;3.10;;;27.80;38.50;;;;;;5032738;28;20577;-44
2022/07/22 07:17:09;;;;;;;5.90;3.80;;;27.90;38.50;;;;;;5032512;28;20233;-43
2022/07/22 07:19:35;;;;;;;4.50;3.43;;;27.90;38.90;;;;;;5032973;28;20186;-44
2022/07/22 07:22:00;;;;;;;4.77;3.60;;;28.00;39.10;;;;;;5032834;28;20210;-45
2022/07/22 07:24:26;;;;;;;5.47;4.37;;;28.00;38.90;;;;;;5033057;28;20208;-45
2022/07/22 07:26:52;;;;;;;4.57;3.73;;;28.10;39.30;;;;;;5032459;28;20196;-45
2022/07/22 07:29:17;;;;;;;4.50;3.43;;;28.30;39.60;;;;;;5034002;28;20174;-44
2022/07/22 07:31:43;;;;;;;7.53;4.13;;;28.30;39.00;;;;;;5035416;28;20231;-43
2022/07/22 07:34:09;;;;;;;5.30;3.27;;;28.40;38.40;;;;;;5035603;28;20174;-43
2022/07/22 07:36:35;;;;;;;4.20;3.30;;;28.50;38.70;;;;;;5037882;28;20213;-45
2022/07/22 07:39:00;;;;;;;5.33;3.50;;;28.60;38.30;;;;;;5038973;28;20181;-45
2022/07/22 07:41:26;;;;;;;3.73;3.13;;;28.60;38.30;;;;;;5037792;28;20268;-45
2022/07/22 07:43:52;;;;;;;5.07;3.07;;;28.70;38.10;;;;;;5036562;28;20293;-46
2022/07/22 07:46:18;;;;;;;5.40;4.13;;;28.80;38.10;;;;;;5037737;28;20440;-44
2022/07/22 07:48:44;;;;;;;5.40;3.37;;;28.80;38.30;;;;;;5039420;28;20198;-45
2022/07/22 07:51:10;;;;;;;4.50;3.30;;;28.90;38.20;;;;;;5038368;28;20180;-46
2022/07/22 07:53:35;;;;;;;4.87;3.97;;;29.00;37.50;;;;;;5032386;28;20182;-45
2022/07/22 07:56:01;;;;;;;5.33;4.07;;;29.00;38.20;;;;;;5031996;28;20417;-46
2022/07/22 07:58:27;;;;;;;9.20;4.27;;;29.00;38.30;;;;;;5032194;28;20522;-45
2022/07/22 08:00:53;;;;;;;6.73;4.37;;;29.10;37.10;;;;;;5032085;28;20405;-46
2022/07/22 08:03:28;;;;;;;5.30;3.90;;;29.10;37.70;;;;;;5032315;28;20288;-45
2022/07/22 08:05:53;;;;;;;5.07;4.13;;;29.20;37.90;;;;;;5031413;28;20633;-46
2022/07/22 08:08:19;;;;;;;5.90;4.30;;;29.30;37.10;;;;;;5032164;28;20409;-45
2022/07/22 08:10:45;;;;;;;4.10;3.30;;;29.20;36.90;;;;;;5032007;28;20634;-45
2022/07/22 08:13:11;;;;;;;4.07;3.67;;;29.30;37.30;;;;;;5032224;28;20417;-46
2022/07/22 08:15:37;;;;;;;7.80;5.90;;;29.30;37.30;;;;;;5031743;28;20276;-46
2022/07/22 08:18:03;;;;;;;5.10;4.13;;;29.30;36.90;;;;;;5032092;28;20439;-46
2022/07/22 08:20:30;;;;;;;5.27;4.40;;;29.30;36.80;;;;;;5014271;28;20703;-46
2022/07/22 08:22:56;;;;;;;5.43;3.90;;;29.40;37.20;;;;;;5014185;28;20526;-46
2022/07/22 08:25:22;;;;;;;5.10;4.30;;;29.50;37.20;;;;;;5014158;28;20409;-46
2022/07/22 08:27:48;;;;;;;7.43;4.60;;;29.60;36.40;;;;;;5031556;28;20432;-47
2022/07/22 08:30:16;;;;;;;5.80;4.70;;;29.80;36.90;;;;;;5031753;28;20406;-46
2022/07/22 08:32:42;;;;;;;8.70;4.03;;;29.90;35.80;;;;;;5031771;28;20495;-46
2022/07/22 08:35:09;;;;;;;6.60;4.23;;;30.00;36.40;;;;;;5031737;28;20499;-47
2022/07/22 08:37:34;;;;;;;7.47;4.70;;;30.20;36.40;;;;;;5031407;28;20420;-47
2022/07/22 08:40:01;;;;;;;6.30;4.70;;;30.30;36.20;;;;;;5032215;28;20474;-47
2022/07/22 08:42:27;;;;;;;5.10;3.83;;;30.40;35.90;;;;;;5031616;28;20816;-46
2022/07/22 08:44:53;;;;;;;5.00;4.37;;;30.40;36.20;;;;;;5034774;23;20487;-45
2022/07/22 08:47:23;;;;;;;4.70;3.80;;;30.50;35.90;;;;;;5022887;28;20993;-45
2022/07/22 08:49:50;;;;;;;5.10;4.03;;;30.40;35.70;;;;;;5031698;28;21063;-45
2022/07/22 08:52:16;;;;;;;5.97;4.40;;;30.30;36.00;;;;;;5031548;28;20407;-46
2022/07/22 08:54:42;;;;;;;4.67;4.10;;;30.30;36.30;;;;;;5031594;28;20420;-44
2022/07/22 08:57:08;;;;;;;5.50;4.30;;;30.30;36.20;;;;;;5031325;28;20408;-45
2022/07/22 08:59:47;;;;;;;6.00;4.60;;;30.40;35.70;;;;;;5031969;28;20788;-46
2022/07/22 09:02:13;;;;;;;6.80;4.40;;;30.50;35.00;;;;;;5031798;28;20198;-44
2022/07/22 09:05:01;;;;;;;5.93;4.60;;;30.60;34.70;;;;;;5031591;28;20497;-44
2022/07/22 09:07:32;;;;;;;5.53;4.27;;;30.70;35.20;;;;;;5031231;28;20158;-44
2022/07/22 09:10:00;;;;;;;6.73;4.97;;;31.00;34.80;;;;;;5031488;28;20405;-45
2022/07/22 09:12:31;;;;;;;10.30;4.80;;;31.10;34.40;;;;;;5031503;28;20401;-44
2022/07/22 09:14:59;;;;;;;6.53;4.60;;;31.20;34.40;;;;;;5031355;28;20435;-44
2022/07/22 09:17:35;;;;;;;7.23;4.97;;;31.30;33.80;;;;;;5031207;28;20880;-44
2022/07/22 09:20:03;;;;;;;5.80;4.83;;;31.40;33.40;;;;;;5031827;28;20413;-45
2022/07/22 09:22:40;;;;;;;5.00;4.50;;;31.40;34.10;;;;;;5034769;28;20456;-44
2022/07/22 09:25:34;;;;;;;5.13;4.63;;;31.50;34.00;;;;;;5034849;28;20455;-44
2022/07/22 09:28:06;;;;;;;5.07;4.03;;;31.60;32.90;;;;;;5034883;28;20745;-44
2022/07/22 09:30:33;;;;;;;5.70;4.67;;;31.60;33.40;;;;;;5034866;28;20455;-44
2022/07/22 09:32:59;;;;;;;5.43;4.20;;;31.70;31.90;;;;;;5034885;28;20443;-44
2022/07/22 09:35:26;;;;;;;6.37;4.83;;;31.70;32.30;;;;;;5034652;28;20429;-45
2022/07/22 09:38:01;;;;;;;4.97;4.43;;;31.80;32.60;;;;;;5034620;28;20170;-44
2022/07/22 09:40:30;;;;;;;7.03;4.73;;;31.90;33.00;;;;;;5034799;28;20400;-46
2022/07/22 09:43:04;;;;;;;5.43;3.97;;;31.90;32.80;;;;;;5034468;28;20831;-46
2022/07/22 09:45:31;;;;;;;8.30;5.00;;;32.00;33.10;;;;;;5034338;28;20532;-44
2022/07/22 09:47:59;;;;;;;4.50;4.00;;;32.00;33.50;;;;;;5034431;28;20401;-46
2022/07/22 09:50:28;;;;;;;5.93;5.20;;;32.00;33.10;;;;;;5034558;28;20519;-47
2022/07/22 09:52:57;;;;;;;4.50;4.10;;;32.00;32.20;;;;;;5034415;28;20436;-46
2022/07/22 09:55:24;;;;;;;10.30;4.80;;;32.10;32.50;;;;;;5034151;28;20761;-46
2022/07/22 09:57:52;;;;;;;6.80;4.50;;;32.20;30.70;;;;;;5016387;28;20987;-47
2022/07/22 10:00:20;;;;;;;4.30;3.90;;;32.10;30.80;;;;;;5034289;28;20439;-46
2022/07/22 10:02:52;;;;;;;5.33;4.33;;;32.10;31.00;;;;;;5034176;28;20535;-46
2022/07/22 10:05:24;;;;;;;5.67;4.50;;;32.20;31.20;;;;;;5033924;28;20428;-47
2022/07/22 10:07:52;;;;;;;5.00;4.37;;;32.30;31.20;;;;;;5034012;28;20385;-48
2022/07/22 10:10:20;;;;;;;4.93;3.97;;;32.50;30.00;;;;;;5034603;28;20409;-47
2022/07/22 10:12:49;;;;;;;4.93;4.43;;;32.50;30.50;;;;;;5034051;28;20420;-47
2022/07/22 10:15:15;;;;;;;5.10;4.03;;;32.50;29.40;;;;;;5034163;28;20436;-46
2022/07/22 10:17:43;;;;;;;6.00;4.73;;;32.50;29.70;;;;;;5033702;28;20416;-46
2022/07/22 10:20:11;;;;;;;5.47;4.70;;;32.50;29.90;;;;;;5033781;28;20419;-45
2022/07/22 10:22:40;;;;;;;5.03;4.17;;;32.60;30.40;;;;;;5034028;28;20449;-47
2022/07/22 10:25:11;;;;;;;5.20;4.70;;;32.70;29.30;;;;;;5033795;28;20421;-47
2022/07/22 10:27:50;;;;;;;5.83;4.70;;;32.80;30.10;;;;;;5033924;28;20389;-47
2022/07/22 10:30:29;;;;;;;5.83;4.90;;;32.80;28.50;;;;;;5033577;28;20498;-47
2022/07/22 10:33:11;;;;;;;9.00;4.80;;;32.70;29.00;;;;;;5032612;28;20458;-47
2022/07/22 10:35:59;;;;;;;6.93;4.10;;;32.50;28.80;;;;;;5033278;28;20456;-47
2022/07/22 10:38:26;;;;;;;6.10;4.67;;;32.40;28.80;;;;;;5033553;28;20393;-47
2022/07/22 10:41:04;;;;;;;4.53;4.03;;;32.40;29.40;;;;;;5033534;28;20413;-46
2022/07/22 10:43:44;;;;;;;5.20;4.07;;;32.50;29.10;;;;;;5033679;28;20459;-46
2022/07/22 10:46:11;;;;;;;4.67;4.27;;;32.60;29.70;;;;;;5033503;28;20531;-47
2022/07/22 10:48:36;;;;;;;6.93;5.10;;;32.60;29.30;;;;;;5033310;28;20408;-47
2022/07/22 10:51:13;;;;;;;5.00;4.37;;;32.50;29.40;;;;;;5033287;28;20396;-47
2022/07/22 10:53:55;;;;;;;5.17;4.67;;;32.50;29.60;;;;;;5033279;28;20165;-47
2022/07/22 10:56:29;;;;;;;8.10;5.00;;;32.50;29.30;;;;;;5033148;28;20404;-47
2022/07/22 10:59:11;;;;;;;5.97;4.50;;;32.70;30.00;;;;;;5033139;28;20396;-47
2022/07/22 11:01:40;;;;;;;6.07;4.60;;;32.80;29.90;;;;;;5033177;28;20416;-46
2022/07/22 11:04:36;;;;;;;6.43;5.07;;;33.00;30.00;;;;;;5033107;28;20460;-47
2022/07/22 11:07:03;;;;;;;7.40;5.87;;;33.20;29.90;;;;;;5028859;28;20456;-47
2022/07/22 11:09:34;;;;;;;8.40;4.60;;;33.40;29.90;;;;;;5032961;28;20404;-47
2022/07/22 11:12:00;;;;;;;5.77;3.77;;;33.50;29.00;;;;;;5032784;28;20756;-46
2022/07/22 11:14:35;;;;;;;5.03;4.50;;;33.60;28.90;;;;;;5033027;28;20425;-47
2022/07/22 11:17:05;;;;;;;5.90;3.77;;;33.70;29.10;;;;;;5032889;28;20588;-47
2022/07/22 11:19:37;;;;;;;6.70;4.43;;;33.80;29.00;;;;;;5032832;28;20420;-46
2022/07/22 11:22:13;;;;;;;5.50;3.80;;;33.80;28.10;;;;;;5032729;28;20618;-46
2022/07/22 11:24:40;;;;;;;5.23;3.80;;;33.80;27.90;;;;;;5032660;28;20432;-47
2022/07/22 11:27:15;;;;;;;4.13;3.60;;;33.90;28.70;;;;;;5032407;28;20404;-47
2022/07/22 11:29:46;;;;;;;5.43;3.60;;;34.00;28.80;;;;;;5032971;28;20395;-46
2022/07/22 11:32:13;;;;;;;5.23;4.10;;;34.10;28.70;;;;;;5032583;28;20768;-47
2022/07/22 11:34:46;;;;;;;7.67;4.17;;;34.20;28.20;;;;;;5032656;28;20452;-47
2022/07/22 11:37:17;;;;;;;6.67;4.73;;;34.20;27.70;;;;;;5032250;28;20401;-48
2022/07/22 11:39:43;;;;;;;7.03;4.80;;;34.30;27.60;;;;;;5032504;28;20439;-47
2022/07/22 11:42:09;;;;;;;5.00;3.50;;;34.30;27.50;;;;;;5032238;28;20404;-47
2022/07/22 11:44:37;;;;;;;5.53;4.23;;;34.40;27.60;;;;;;5031979;28;20210;-46
2022/07/22 11:47:05;;;;;;;5.17;4.33;;;34.50;26.60;;;;;;5032084;28;20417;-46
2022/07/22 11:49:33;;;;;;;4.90;4.40;;;34.50;26.50;;;;;;5032271;28;20440;-47
2022/07/22 11:52:00;;;;;;;7.37;3.73;;;34.50;26.90;;;;;;5032202;28;20425;-46
2022/07/22 11:54:27;;;;;;;3.40;3.10;;;34.60;26.90;;;;;;5032272;28;20430;-46
2022/07/22 11:56:53;;;;;;;4.30;3.90;;;34.60;26.90;;;;;;5031993;28;20472;-47
2022/07/22 11:59:19;;;;;;;5.47;4.13;;;34.60;27.10;;;;;;5032167;28;20440;-47
2022/07/22 12:01:47;;;;;;;4.40;3.77;;;34.60;26.90;;;;;;5032080;28;20896;-48
2022/07/22 12:04:25;;;;;;;5.77;3.90;;;34.60;26.90;;;;;;5032009;28;20459;-47
2022/07/22 12:06:53;;;;;;;5.53;3.60;;;34.60;25.80;;;;;;5031871;28;20500;-48
2022/07/22 12:09:19;;;;;;;4.80;3.30;;;34.70;26.10;;;;;;5032310;28;20912;-47
2022/07/22 12:11:47;;;;;;;3.90;3.30;;;34.70;26.10;;;;;;5032088;28;20412;-47
2022/07/22 12:14:19;;;;;;;4.67;3.63;;;34.80;26.50;;;;;;5031839;28;20213;-47
2022/07/22 12:16:55;;;;;;;6.90;3.43;;;34.90;26.80;;;;;;5031652;28;20424;-47
2022/07/22 12:19:21;;;;;;;5.03;3.77;;;35.00;27.10;;;;;;5032272;28;20408;-47
2022/07/22 12:22:04;;;;;;;5.57;3.90;;;35.10;26.50;;;;;;5031893;28;20411;-47
2022/07/22 12:24:29;;;;;;;5.53;3.73;;;35.20;26.10;;;;;;5032138;28;20424;-47
2022/07/22 12:27:01;;;;;;;3.77;2.70;;;35.30;26.00;;;;;;5031652;28;20550;-47
2022/07/22 12:29:30;;;;;;;5.70;3.50;;;35.30;26.00;;;;;;5032235;28;20569;-48
2022/07/22 12:32:03;;;;;;;4.60;3.10;;;35.30;26.30;;;;;;5031896;28;20411;-48
2022/07/22 12:34:38;;;;;;;4.33;3.50;;;35.40;25.30;;;;;;5032013;28;20799;-46
2022/07/22 12:37:16;;;;;;;3.50;2.97;;;35.50;24.60;;;;;;5031566;28;20435;-48
2022/07/22 12:39:56;;;;;;;3.47;3.00;;;35.60;25.60;;;;;;5031860;28;20396;-47
2022/07/22 12:42:24;;;;;;;3.60;2.90;;;35.50;25.70;;;;;;5031898;28;20466;-47
2022/07/22 12:44:52;;;;;;;3.30;2.50;;;35.50;25.30;;;;;;5031723;28;20452;-47
2022/07/22 12:47:50;;;;;;;4.90;3.07;;;35.60;25.10;;;;;;5031459;28;20418;-47